Time;durP1;ratioP1;P1;durP2;ratioP2;P2;SDS_P1;SDS_P2;PMS_P1;PMS_P2;Temp;Humidity;BMP_temperature;BMP_pressure;BME280_temperature;BME280_humidity;BME280_pressure;Samples;Min_cycle;Max_cycle;Signal;HPM_P1;HPM_P2
2022/03/26 00:00:34;;;;;;;32.37;19.70;;;;;;;;;;5072054;28;20269;-57
2022/03/26 00:03:00;;;;;;;30.90;19.73;;;;;;;;;;5071830;28;20210;-57
2022/03/26 00:05:26;;;;;;;28.13;19.77;;;;;;;;;;5071971;28;20290;-57
2022/03/26 00:08:03;;;;;;;30.07;18.97;;;;;;;;;;5071771;28;20195;-57
2022/03/26 00:10:29;;;;;;;33.35;22.98;;;;;;;;;;5068578;28;20984;-57
2022/03/26 00:12:57;;;;;;;35.05;23.50;;;;;;;;;;5070350;28;20466;-56
2022/03/26 00:15:23;;;;;;;29.30;20.53;;;;;;;;;;5071570;28;20658;-57
2022/03/26 00:17:49;;;;;;;31.53;19.97;;;;;;;;;;5071471;28;20239;-57
2022/03/26 00:20:15;;;;;;;32.28;23.58;;;;;;;;;;5070355;28;20439;-57
2022/03/26 00:22:41;;;;;;;33.57;20.67;;;;;;;;;;5075327;28;20249;-57
2022/03/26 00:25:10;;;;;;;35.17;24.85;;;;;;;;;;5073566;28;20419;-57
2022/03/26 00:27:36;;;;;;;28.60;20.03;;;;;;;;;;5075380;28;20204;-57
2022/03/26 00:30:03;;;;;;;28.57;20.20;;;;;;;;;;5075180;28;20331;-57
2022/03/26 00:32:29;;;;;;;31.37;20.10;;;;;;;;;;5075197;28;20253;-57
2022/03/26 00:34:55;;;;;;;29.47;19.87;;;;;;;;;;5074821;28;20204;-57
2022/03/26 00:37:21;;;;;;;30.87;19.23;;;;;;;;;;5074885;28;20665;-57
2022/03/26 00:39:47;;;;;;;32.33;20.10;;;;;;;;;;5075060;28;20469;-57
2022/03/26 00:42:15;;;;;;;30.93;20.10;;;;;;;;;;5062738;28;20287;-57
2022/03/26 00:44:41;;;;;;;31.93;20.03;;;;;;;;;;5053341;28;20250;-58
2022/03/26 00:47:07;;;;;;;28.90;19.90;;;;;;;;;;5054943;28;20439;-58
2022/03/26 00:49:33;;;;;;;30.27;19.83;;;;;;;;;;5054834;28;20537;-59
2022/03/26 00:51:59;;;;;;;30.60;19.10;;;;;;;;;;5054795;28;20430;-58
2022/03/26 00:54:25;;;;;;;30.57;19.00;;;;;;;;;;5054970;28;20435;-59
2022/03/26 00:56:51;;;;;;;29.47;19.03;;;;;;;;;;5054596;28;20569;-58
2022/03/26 00:59:19;;;;;;;32.63;19.53;;;;;;;;;;5054519;28;20531;-58
2022/03/26 01:01:45;;;;;;;30.97;19.10;;;;;;;;;;5054601;28;20517;-58
2022/03/26 01:04:12;;;;;;;31.07;19.27;;;;;;;;;;5054459;28;20453;-57
2022/03/26 01:06:38;;;;;;;28.27;19.47;;;;;;;;;;5054189;28;20430;-56
2022/03/26 01:09:05;;;;;;;31.47;19.53;;;;;;;;;;5054345;28;20477;-56
2022/03/26 01:11:31;;;;;;;31.00;21.75;;;;;;;;;;5053265;28;20393;-58
2022/03/26 01:13:57;;;;;;;29.73;20.53;;;;;;;;;;5054327;28;20202;-58
2022/03/26 01:16:24;;;;;;;30.37;20.23;;;;;;;;;;5054356;28;20430;-58
2022/03/26 01:18:50;;;;;;;30.10;19.97;;;;;;;;;;5053778;28;20447;-59
2022/03/26 01:21:16;;;;;;;28.03;19.57;;;;;;;;;;5053779;28;20506;-59
2022/03/26 01:23:43;;;;;;;30.07;20.27;;;;;;;;;;5054017;28;20612;-58
2022/03/26 01:26:09;;;;;;;30.10;19.97;;;;;;;;;;5053898;28;20240;-58
2022/03/26 01:28:35;;;;;;;32.77;19.33;;;;;;;;;;5054141;28;20508;-58
2022/03/26 01:31:02;;;;;;;28.47;19.53;;;;;;;;;;5053652;28;20459;-59
2022/03/26 01:33:29;;;;;;;27.60;18.90;;;;;;;;;;5054060;28;20201;-59
2022/03/26 01:35:55;;;;;;;25.83;18.53;;;;;;;;;;5053789;28;20940;-58
2022/03/26 01:38:21;;;;;;;30.07;20.23;;;;;;;;;;5053709;28;20442;-59
2022/03/26 01:40:48;;;;;;;31.80;22.92;;;;;;;;;;5052433;28;20417;-58
2022/03/26 01:43:14;;;;;;;29.07;20.80;;;;;;;;;;5053662;28;20568;-58
2022/03/26 01:45:40;;;;;;;30.17;20.60;;;;;;;;;;5053800;28;20445;-58
2022/03/26 01:48:06;;;;;;;30.23;19.60;;;;;;;;;;5053647;28;20500;-58
2022/03/26 01:50:34;;;;;;;29.93;19.63;;;;;;;;;;5053624;28;20485;-59
2022/03/26 01:53:00;;;;;;;29.20;19.53;;;;;;;;;;5053594;28;20439;-59
2022/03/26 01:55:27;;;;;;;27.17;18.20;;;;;;;;;;5053380;28;20510;-59
2022/03/26 01:57:53;;;;;;;29.87;19.53;;;;;;;;;;5053415;28;20533;-59
2022/03/26 02:00:20;;;;;;;29.00;19.97;;;;;;;;;;5053208;28;20482;-58
2022/03/26 02:02:46;;;;;;;28.73;19.93;;;;;;;;;;5053205;28;20430;-58
2022/03/26 02:05:12;;;;;;;30.53;19.63;;;;;;;;;;5053280;28;20938;-59
2022/03/26 02:07:40;;;;;;;26.97;18.80;;;;;;;;;;5053342;28;20430;-58
2022/03/26 02:10:08;;;;;;;29.37;20.23;;;;;;;;;;5053207;28;20454;-58
2022/03/26 02:12:34;;;;;;;33.13;19.27;;;;;;;;;;5053127;28;20466;-59
2022/03/26 02:15:00;;;;;;;31.70;19.97;;;;;;;;;;5053140;28;20505;-59
2022/03/26 02:17:26;;;;;;;28.17;19.90;;;;;;;;;;5052975;28;20951;-58
2022/03/26 02:19:54;;;;;;;27.27;18.97;;;;;;;;;;5053008;28;20509;-59
2022/03/26 02:22:20;;;;;;;31.73;20.27;;;;;;;;;;5052357;28;20453;-58
2022/03/26 02:24:46;;;;;;;30.80;21.00;;;;;;;;;;5052759;28;20475;-58
2022/03/26 02:27:12;;;;;;;32.33;20.33;;;;;;;;;;5052940;28;21148;-59
2022/03/26 02:29:38;;;;;;;29.13;20.33;;;;;;;;;;5052845;28;20192;-59
2022/03/26 02:32:04;;;;;;;32.80;21.33;;;;;;;;;;5052678;28;20199;-59
2022/03/26 02:34:30;;;;;;;35.53;25.92;;;;;;;;;;5051672;28;20429;-58
2022/03/26 02:36:58;;;;;;;36.63;26.60;;;;;;;;;;5051358;28;20444;-59
2022/03/26 02:39:24;;;;;;;40.05;26.85;;;;;;;;;;5051367;28;20416;-58
2022/03/26 02:41:50;;;;;;;31.40;22.17;;;;;;;;;;5052509;28;20196;-58
2022/03/26 02:44:16;;;;;;;33.00;21.33;;;;;;;;;;5051932;28;20192;-58
2022/03/26 02:46:45;;;;;;;29.70;21.20;;;;;;;;;;5052675;28;20489;-58
2022/03/26 02:49:12;;;;;;;33.27;21.70;;;;;;;;;;5052546;28;20427;-58
2022/03/26 02:51:38;;;;;;;37.63;23.77;;;;;;;;;;5052515;28;20431;-58
2022/03/26 02:54:05;;;;;;;39.65;28.10;;;;;;;;;;5051155;28;20401;-57
2022/03/26 02:56:31;;;;;;;37.97;24.90;;;;;;;;;;5052610;28;20204;-58
2022/03/26 02:58:57;;;;;;;35.47;24.40;;;;;;;;;;5052382;28;20439;-58
2022/03/26 03:01:24;;;;;;;39.22;28.27;;;;;;;;;;5051070;28;20417;-58
2022/03/26 03:03:50;;;;;;;36.53;24.47;;;;;;;;;;5052370;28;20287;-58
2022/03/26 03:06:16;;;;;;;37.73;24.10;;;;;;;;;;5052060;28;20513;-58
2022/03/26 03:08:42;;;;;;;39.53;24.87;;;;;;;;;;5052348;28;20443;-59
2022/03/26 03:11:09;;;;;;;43.23;25.60;;;;;;;;;;5052159;28;20439;-58
2022/03/26 03:13:36;;;;;;;45.50;30.10;;;;;;;;;;5050768;28;20474;-60
2022/03/26 03:16:02;;;;;;;40.23;26.33;;;;;;;;;;5052002;28;20203;-61
2022/03/26 03:18:28;;;;;;;43.67;30.38;;;;;;;;;;5050814;28;20768;-59
2022/03/26 03:20:54;;;;;;;48.22;32.83;;;;;;;;;;5047020;28;20413;-59
2022/03/26 03:23:20;;;;;;;42.67;30.35;;;;;;;;;;5050118;28;20839;-59
2022/03/26 03:25:46;;;;;;;41.40;31.40;;;;;;;;;;5050297;28;20478;-59
2022/03/26 03:28:13;;;;;;;42.10;26.53;;;;;;;;;;5051785;28;20202;-59
2022/03/26 03:30:39;;;;;;;41.67;30.33;;;;;;;;;;5050697;28;20410;-57
2022/03/26 03:33:07;;;;;;;38.67;25.73;;;;;;;;;;5051606;28;20594;-60
2022/03/26 03:35:33;;;;;;;42.17;25.27;;;;;;;;;;5051876;28;20442;-59
2022/03/26 03:37:59;;;;;;;39.33;24.23;;;;;;;;;;5051986;28;20437;-59
2022/03/26 03:40:25;;;;;;;35.90;24.13;;;;;;;;;;5051702;28;20223;-58
2022/03/26 03:42:53;;;;;;;38.07;24.10;;;;;;;;;;5051906;28;20450;-58
2022/03/26 03:45:20;;;;;;;45.57;25.40;;;;;;;;;;5051811;28;20613;-59
2022/03/26 03:47:54;;;;;;;39.25;29.55;;;;;;;;;;5050662;28;20432;-58
2022/03/26 03:50:20;;;;;;;41.53;24.83;;;;;;;;;;5051689;28;20200;-58
2022/03/26 03:52:46;;;;;;;38.87;24.40;;;;;;;;;;5051898;28;20522;-58
2022/03/26 03:55:13;;;;;;;38.10;24.27;;;;;;;;;;5053748;28;20502;-58
2022/03/26 03:57:40;;;;;;;40.77;25.07;;;;;;;;;;5055945;28;20222;-59
2022/03/26 04:00:07;;;;;;;42.03;25.03;;;;;;;;;;5055525;28;20941;-59
2022/03/26 04:02:35;;;;;;;38.60;25.70;;;;;;;;;;5055624;28;20434;-59
2022/03/26 04:05:01;;;;;;;37.07;25.20;;;;;;;;;;5055533;28;20453;-59
2022/03/26 04:07:27;;;;;;;39.90;25.87;;;;;;;;;;5055704;28;20426;-58
2022/03/26 04:09:53;;;;;;;42.80;26.37;;;;;;;;;;5055218;28;20246;-59
2022/03/26 04:12:19;;;;;;;46.23;28.93;;;;;;;;;;5053986;28;20427;-60
2022/03/26 04:14:45;;;;;;;40.10;25.50;;;;;;;;;;5055439;28;20987;-58
2022/03/26 04:17:12;;;;;;;39.03;25.47;;;;;;;;;;5055207;28;20439;-59
2022/03/26 04:19:39;;;;;;;40.00;25.23;;;;;;;;;;5055287;28;20522;-59
2022/03/26 04:22:06;;;;;;;39.07;25.53;;;;;;;;;;5055122;28;21008;-59
2022/03/26 04:24:32;;;;;;;40.67;26.73;;;;;;;;;;5055158;28;20450;-59
2022/03/26 04:26:58;;;;;;;48.57;27.17;;;;;;;;;;5055332;28;20485;-59
2022/03/26 04:29:24;;;;;;;42.70;26.90;;;;;;;;;;5055208;28;20442;-60
2022/03/26 04:31:51;;;;;;;45.90;27.73;;;;;;;;;;5055168;28;20231;-59
2022/03/26 04:34:17;;;;;;;43.33;26.27;;;;;;;;;;5055076;28;20458;-59
2022/03/26 04:36:45;;;;;;;43.53;27.23;;;;;;;;;;5055203;28;20521;-61
2022/03/26 04:39:11;;;;;;;49.65;32.72;;;;;;;;;;5053593;28;20500;-60
2022/03/26 04:41:37;;;;;;;49.92;34.55;;;;;;;;;;5053554;28;20958;-60
2022/03/26 04:44:03;;;;;;;46.00;29.37;;;;;;;;;;5054854;28;20202;-60
2022/03/26 04:46:29;;;;;;;41.40;25.73;;;;;;;;;;5054658;28;20947;-61
2022/03/26 04:48:55;;;;;;;45.53;28.07;;;;;;;;;;5054777;28;20870;-61
2022/03/26 04:51:21;;;;;;;45.00;32.22;;;;;;;;;;5053315;28;20424;-59
2022/03/26 04:53:48;;;;;;;46.73;29.10;;;;;;;;;;5054785;28;20200;-59
2022/03/26 04:56:15;;;;;;;45.33;32.50;;;;;;;;;;5053464;28;20405;-60
2022/03/26 04:58:41;;;;;;;44.13;28.13;;;;;;;;;;5054690;28;20250;-59
2022/03/26 05:01:07;;;;;;;40.70;27.67;;;;;;;;;;5054396;28;20528;-60
2022/03/26 05:03:33;;;;;;;45.37;27.93;;;;;;;;;;5054526;28;20470;-60
2022/03/26 05:05:59;;;;;;;45.93;27.00;;;;;;;;;;5053426;28;20463;-60
2022/03/26 05:08:25;;;;;;;45.73;26.33;;;;;;;;;;5054597;28;20203;-60
2022/03/26 05:10:52;;;;;;;42.27;26.57;;;;;;;;;;5054463;28;20196;-59
2022/03/26 05:13:18;;;;;;;46.13;27.50;;;;;;;;;;5054254;28;20455;-61
2022/03/26 05:15:45;;;;;;;40.20;26.20;;;;;;;;;;5054359;28;20438;-60
2022/03/26 05:18:13;;;;;;;44.00;25.27;;;;;;;;;;5054195;28;20462;-60
2022/03/26 05:20:39;;;;;;;42.03;25.97;;;;;;;;;;5054036;28;20478;-59
2022/03/26 05:23:05;;;;;;;40.97;25.30;;;;;;;;;;5053903;28;20473;-59
2022/03/26 05:25:31;;;;;;;37.37;25.73;;;;;;;;;;5054010;28;20479;-58
2022/03/26 05:27:59;;;;;;;42.30;29.38;;;;;;;;;;5052823;28;20398;-59
2022/03/26 05:30:25;;;;;;;42.33;26.20;;;;;;;;;;5054061;28;20209;-59
2022/03/26 05:32:51;;;;;;;38.07;24.60;;;;;;;;;;5054033;28;20466;-60
2022/03/26 05:35:18;;;;;;;39.43;24.87;;;;;;;;;;5053718;28;20956;-60
2022/03/26 05:37:44;;;;;;;45.67;26.13;;;;;;;;;;5054029;28;20427;-59
2022/03/26 05:40:11;;;;;;;37.47;23.97;;;;;;;;;;5053628;28;20988;-59
2022/03/26 05:42:37;;;;;;;41.43;25.70;;;;;;;;;;5053870;28;20544;-59
2022/03/26 05:45:05;;;;;;;38.17;25.13;;;;;;;;;;5053718;28;20533;-59
2022/03/26 05:47:31;;;;;;;42.80;25.50;;;;;;;;;;5053640;28;20447;-60
2022/03/26 05:49:57;;;;;;;41.97;29.43;;;;;;;;;;5052054;28;20409;-59
2022/03/26 05:52:23;;;;;;;36.87;25.13;;;;;;;;;;5053519;28;20192;-59
2022/03/26 05:54:49;;;;;;;42.33;24.10;;;;;;;;;;5053629;28;20438;-59
2022/03/26 05:57:15;;;;;;;40.97;25.30;;;;;;;;;;5053468;28;20465;-59
2022/03/26 05:59:41;;;;;;;40.43;25.57;;;;;;;;;;5053588;28;20200;-59
2022/03/26 06:02:11;;;;;;;39.80;24.97;;;;;;;;;;5053288;28;20443;-59
2022/03/26 06:04:40;;;;;;;41.03;26.07;;;;;;;;;;5053362;28;20200;-59
2022/03/26 06:07:07;;;;;;;41.37;26.17;;;;;;;;;;5053252;28;20447;-59
2022/03/26 06:09:33;;;;;;;44.93;27.63;;;;;;;;;;5053383;28;20441;-58
2022/03/26 06:11:59;;;;;;;42.53;25.67;;;;;;;;;;5053253;28;20439;-58
2022/03/26 06:14:25;;;;;;;43.57;26.53;;;;;;;;;;5053097;28;20818;-58
2022/03/26 06:16:51;;;;;;;45.17;26.47;;;;;;;;;;5053119;28;20442;-58
2022/03/26 06:19:19;;;;;;;41.90;28.30;;;;;;;;;;5051915;28;20963;-57
2022/03/26 06:21:45;;;;;;;43.43;27.67;;;;;;;;;;5053056;28;20706;-57
2022/03/26 06:24:11;;;;;;;42.93;28.13;;;;;;;;;;5052851;28;20447;-58
2022/03/26 06:26:39;;;;;;;49.70;34.20;;;;;;;;;;5051472;28;21152;-57
2022/03/26 06:29:05;;;;;;;47.70;33.55;;;;;;;;;;5051447;28;20397;-59
2022/03/26 06:31:31;;;;;;;46.37;30.77;;;;;;;;;;5053038;28;20192;-59
2022/03/26 06:33:57;;;;;;;42.87;27.60;;;;;;;;;;5052829;28;20457;-59
2022/03/26 06:36:25;;;;;;;47.10;28.03;;;;;;;;;;5052344;28;20196;-59
2022/03/26 06:38:51;;;;;;;48.50;28.53;;;;;;;;;;5052723;28;20435;-57
2022/03/26 06:41:17;;;;;;;50.72;34.13;;;;;;;;;;5051184;28;20882;-59
2022/03/26 06:43:44;;;;;;;49.43;30.87;;;;;;;;;;5052567;28;20207;-58
2022/03/26 06:46:09;;;;;;;49.00;30.27;;;;;;;;;;5052398;28;20450;-58
2022/03/26 06:48:36;;;;;;;48.53;31.53;;;;;;;;;;5052452;28;20439;-58
2022/03/26 06:51:02;;;;;;;54.23;31.93;;;;;;;;;;5052403;28;20527;-58
2022/03/26 06:53:30;;;;;;;52.07;32.23;;;;;;;;;;5052722;28;20442;-58
2022/03/26 06:55:56;;;;;;;47.47;30.70;;;;;;;;;;5050574;28;20435;-59
2022/03/26 06:58:22;;;;;;;51.83;32.37;;;;;;;;;;5050360;28;20517;-58
2022/03/26 07:00:48;;;;;;;44.50;30.33;;;;;;;;;;5051835;28;20852;-59
2022/03/26 07:03:14;;;;;;;50.37;31.67;;;;;;;;;;5052341;28;20546;-59
2022/03/26 07:05:40;;;;;;;44.43;30.10;;;;;;;;;;5052324;28;20196;-59
2022/03/26 07:08:07;;;;;;;48.83;31.13;;;;;;;;;;5052046;28;20200;-60
2022/03/26 07:10:37;;;;;;;48.70;31.80;;;;;;;;;;5052166;28;20203;-59
2022/03/26 07:13:03;;;;;;;53.50;37.85;;;;;;;;;;5050673;28;20409;-60
2022/03/26 07:15:31;;;;;;;50.03;33.27;;;;;;;;;;5052099;28;20269;-58
2022/03/26 07:17:57;;;;;;;47.20;31.83;;;;;;;;;;5052058;28;20720;-60
2022/03/26 07:20:23;;;;;;;53.03;31.80;;;;;;;;;;5051563;28;20224;-59
2022/03/26 07:22:49;;;;;;;51.53;33.13;;;;;;;;;;5051901;28;20752;-60
2022/03/26 07:25:16;;;;;;;59.77;34.83;;;;;;;;;;5051803;28;20248;-58
2022/03/26 07:27:43;;;;;;;53.70;37.58;;;;;;;;;;5049520;28;20917;-56
2022/03/26 07:30:12;;;;;;;54.13;39.37;;;;;;;;;;5067354;28;20419;-56
2022/03/26 07:32:38;;;;;;;50.90;34.07;;;;;;;;;;5071926;28;20196;-56
2022/03/26 07:35:05;;;;;;;47.93;32.73;;;;;;;;;;5071742;28;20196;-55
2022/03/26 07:37:31;;;;;;;54.13;38.13;;;;;;;;;;5070434;28;20416;-56
2022/03/26 07:39:57;;;;;;;52.53;33.13;;;;;;;;;;5071793;28;20214;-55
2022/03/26 07:42:23;;;;;;;49.77;32.50;;;;;;;;;;5071557;28;20201;-56
2022/03/26 07:44:51;;;;;;;48.70;31.97;;;;;;;;;;5071731;28;20658;-56
2022/03/26 07:47:17;;;;;;;50.53;30.83;;;;;;;;;;5067890;28;20203;-57
2022/03/26 07:49:43;;;;;;;51.97;31.97;;;;;;;;;;5071884;28;20290;-57
2022/03/26 07:52:10;;;;;;;47.37;31.20;;;;;;;;;;5071692;28;20192;-59
2022/03/26 07:54:38;;;;;;;48.57;30.87;;;;;;;;;;5071569;28;20191;-60
2022/03/26 07:57:04;;;;;;;42.10;28.50;;;;;;;;;;5070822;28;20200;-58
2022/03/26 07:59:31;;;;;;;43.90;27.77;;;;;;;;;;5071700;28;20200;-58
2022/03/26 08:01:58;;;;;;;46.43;29.23;;;;;;;;;;5071281;28;20247;-58
2022/03/26 08:04:24;;;;;;;43.67;29.07;;;;;;;;;;5071162;28;20208;-58
2022/03/26 08:06:50;;;;;;;41.30;26.50;;;;;;;;;;5071412;28;20256;-59
2022/03/26 08:09:16;;;;;;;43.07;27.37;;;;;;;;;;5071479;28;20596;-58
2022/03/26 08:11:44;;;;;;;39.70;26.37;;;;;;;;;;5071185;28;20330;-59
2022/03/26 08:14:10;;;;;;;36.13;24.80;;;;;;;;;;5071342;28;20210;-59
2022/03/26 08:16:36;;;;;;;42.65;31.58;;;;;;;;;;5064923;28;20498;-58
2022/03/26 08:19:03;;;;;;;40.93;31.10;;;;;;;;;;5069679;28;20431;-58
2022/03/26 08:21:30;;;;;;;38.43;27.23;;;;;;;;;;5071468;28;20501;-58
2022/03/26 08:23:56;;;;;;;35.97;26.23;;;;;;;;;;5071484;28;20223;-59
2022/03/26 08:26:23;;;;;;;34.37;24.10;;;;;;;;;;5071221;28;20269;-58
2022/03/26 08:28:49;;;;;;;33.87;23.07;;;;;;;;;;5071519;28;20474;-60
2022/03/26 08:31:15;;;;;;;30.53;21.60;;;;;;;;;;5071449;28;20191;-58
2022/03/26 08:33:41;;;;;;;33.03;23.07;;;;;;;;;;5071511;28;20291;-58
2022/03/26 08:36:10;;;;;;;29.73;22.13;;;;;;;;;;5071152;28;20191;-59
2022/03/26 08:38:36;;;;;;;29.90;23.00;;;;;;;;;;5071366;28;20257;-59
2022/03/26 08:41:03;;;;;;;36.95;25.35;;;;;;;;;;5069915;28;20408;-59
2022/03/26 08:43:29;;;;;;;36.30;27.00;;;;;;;;;;5073329;28;20750;-58
2022/03/26 08:45:55;;;;;;;34.23;23.47;;;;;;;;;;5074559;28;20196;-57
2022/03/26 08:48:21;;;;;;;32.37;22.93;;;;;;;;;;5074647;28;20295;-54
2022/03/26 08:50:47;;;;;;;31.60;22.20;;;;;;;;;;5074891;28;20282;-56
2022/03/26 08:53:17;;;;;;;34.50;23.63;;;;;;;;;;5074739;28;20206;-56
2022/03/26 08:55:43;;;;;;;34.42;25.83;;;;;;;;;;5073384;28;20770;-54
2022/03/26 08:58:10;;;;;;;29.87;22.70;;;;;;;;;;5074624;28;20579;-56
2022/03/26 09:00:37;;;;;;;34.57;23.17;;;;;;;;;;5074562;28;20255;-56
2022/03/26 09:03:03;;;;;;;29.50;22.60;;;;;;;;;;5074499;28;20203;-58
2022/03/26 09:05:29;;;;;;;28.77;21.77;;;;;;;;;;5074286;28;20735;-57
2022/03/26 09:07:56;;;;;;;31.07;22.00;;;;;;;;;;5074523;28;20651;-56
2022/03/26 09:10:23;;;;;;;29.13;20.87;;;;;;;;;;5074235;28;20195;-58
2022/03/26 09:12:49;;;;;;;30.37;22.13;;;;;;;;;;5074284;28;20201;-56
2022/03/26 09:15:15;;;;;;;31.20;23.03;;;;;;;;;;5074363;28;20203;-57
2022/03/26 09:17:41;;;;;;;34.40;23.80;;;;;;;;;;5074398;28;20236;-57
2022/03/26 09:20:09;;;;;;;28.73;23.57;;;;;;;;;;5074130;28;20196;-57
2022/03/26 09:22:36;;;;;;;30.73;24.65;;;;;;;;;;5072773;28;20431;-58
2022/03/26 09:25:02;;;;;;;28.57;21.87;;;;;;;;;;5073627;28;20708;-58
2022/03/26 09:27:30;;;;;;;34.60;21.73;;;;;;;;;;5073906;28;20204;-58
2022/03/26 09:29:56;;;;;;;26.53;20.77;;;;;;;;;;5069275;28;20205;-57
2022/03/26 09:32:22;;;;;;;23.67;18.07;;;;;;;;;;5073265;28;20817;-57
2022/03/26 09:34:48;;;;;;;19.60;16.23;;;;;;;;;;5073685;28;20202;-58
2022/03/26 09:37:14;;;;;;;24.33;18.77;;;;;;;;;;5073674;28;20225;-57
2022/03/26 09:39:41;;;;;;;24.13;18.97;;;;;;;;;;5073840;28;20206;-58
2022/03/26 09:42:08;;;;;;;18.80;15.60;;;;;;;;;;5073590;28;20306;-58
2022/03/26 09:44:36;;;;;;;20.37;15.57;;;;;;;;;;5073564;28;20204;-57
2022/03/26 09:47:04;;;;;;;22.60;16.13;;;;;;;;;;5073702;28;20200;-57
2022/03/26 09:49:31;;;;;;;20.83;15.67;;;;;;;;;;5073544;28;20228;-57
2022/03/26 09:51:57;;;;;;;19.00;15.83;;;;;;;;;;5073300;28;20636;-57
2022/03/26 09:54:24;;;;;;;20.23;15.77;;;;;;;;;;5073201;28;20681;-57
2022/03/26 09:56:50;;;;;;;21.63;16.40;;;;;;;;;;5073229;28;20230;-56
2022/03/26 09:59:19;;;;;;;22.13;16.53;;;;;;;;;;5072942;28;20200;-57
2022/03/26 10:01:46;;;;;;;18.07;14.30;;;;;;;;;;5073134;28;20227;-58
2022/03/26 10:04:13;;;;;;;17.73;13.83;;;;;;;;;;5073033;28;20276;-58
2022/03/26 10:06:51;;;;;;;21.57;14.40;;;;;;;;;;5073046;28;20227;-57
2022/03/26 10:09:27;;;;;;;22.63;14.63;;;;;;;;;;5071155;28;20571;-57
2022/03/26 10:12:00;;;;;;;19.97;12.93;;;;;;;;;;5072934;28;20199;-58
2022/03/26 10:14:36;;;;;;;17.43;13.30;;;;;;;;;;5072825;28;20569;-57
2022/03/26 10:17:09;;;;;;;23.20;17.40;;;;;;;;;;5072923;28;20200;-57
2022/03/26 10:19:35;;;;;;;18.47;14.53;;;;;;;;;;5073083;28;20288;-57
2022/03/26 10:22:01;;;;;;;18.40;14.33;;;;;;;;;;5073083;28;20228;-57
2022/03/26 10:24:28;;;;;;;20.23;15.03;;;;;;;;;;5072534;28;20227;-58
2022/03/26 10:26:57;;;;;;;20.23;15.33;;;;;;;;;;5073006;28;20227;-58
2022/03/26 10:29:23;;;;;;;18.87;15.90;;;;;;;;;;5072407;28;20376;-58
2022/03/26 10:34:35;;;;;;;19.33;14.70;;;;;;;;;;5069285;28;20191;-59
2022/03/26 10:37:02;;;;;;;19.47;15.50;;;;;;;;;;5071951;28;20227;-58
2022/03/26 10:39:30;;;;;;;18.30;15.10;;;;;;;;;;5072412;28;20604;-57
2022/03/26 10:41:57;;;;;;;21.67;15.70;;;;;;;;;;5070892;28;20228;-57
2022/03/26 10:44:23;;;;;;;17.40;14.10;;;;;;;;;;5070737;28;20246;-57
2022/03/26 10:46:51;;;;;;;18.87;14.57;;;;;;;;;;5072651;28;20615;-57
2022/03/26 10:49:25;;;;;;;18.33;15.40;;;;;;;;;;5072337;28;20273;-57
2022/03/26 10:51:53;;;;;;;19.30;13.90;;;;;;;;;;5072416;28;20186;-57
2022/03/26 10:54:19;;;;;;;21.77;18.17;;;;;;;;;;5072418;28;20244;-56
2022/03/26 10:56:45;;;;;;;17.83;13.80;;;;;;;;;;5072451;28;20238;-57
2022/03/26 10:59:11;;;;;;;20.23;13.83;;;;;;;;;;5072269;28;20189;-57
2022/03/26 11:01:37;;;;;;;16.93;14.37;;;;;;;;;;5072129;28;20223;-58
2022/03/26 11:04:03;;;;;;;16.57;13.27;;;;;;;;;;5071635;28;20229;-57
2022/03/26 11:06:30;;;;;;;14.43;12.03;;;;;;;;;;5071861;28;20562;-56
2022/03/26 11:09:00;;;;;;;15.60;11.53;;;;;;;;;;5072394;28;20209;-57
2022/03/26 11:11:30;;;;;;;13.83;11.07;;;;;;;;;;5072227;28;20193;-57
2022/03/26 11:13:59;;;;;;;14.93;11.50;;;;;;;;;;5072228;28;20200;-57
2022/03/26 11:16:30;;;;;;;13.97;10.73;;;;;;;;;;5072246;28;20196;-58
2022/03/26 11:19:01;;;;;;;14.50;11.60;;;;;;;;;;5072205;28;20640;-57
2022/03/26 11:21:40;;;;;;;13.40;10.93;;;;;;;;;;5072023;28;20235;-57
2022/03/26 11:24:31;;;;;;;15.77;11.33;;;;;;;;;;5070323;28;20289;-58
2022/03/26 11:27:06;;;;;;;13.50;11.40;;;;;;;;;;5070591;28;20203;-57
2022/03/26 11:29:39;;;;;;;14.20;11.87;;;;;;;;;;5072176;28;20646;-57
2022/03/26 11:32:10;;;;;;;11.77;9.00;;;;;;;;;;5072214;28;20207;-57
2022/03/26 11:34:37;;;;;;;10.80;9.70;;;;;;;;;;5072229;28;20210;-58
2022/03/26 11:37:10;;;;;;;11.17;8.83;;;;;;;;;;5072191;28;20221;-58
2022/03/26 11:39:44;;;;;;;11.47;9.43;;;;;;;;;;5072051;28;20253;-56
2022/03/26 11:42:10;;;;;;;12.83;9.43;;;;;;;;;;5072006;28;20232;-57
2022/03/26 11:44:36;;;;;;;11.13;9.93;;;;;;;;;;5071809;28;20207;-59
2022/03/26 11:53:06;;;;;;;11.87;9.90;;;;;;;;;;5071774;28;20320;-57
2022/03/26 11:55:41;;;;;;;12.30;10.37;;;;;;;;;;5071854;28;20238;-57
2022/03/26 11:58:14;;;;;;;14.93;11.00;;;;;;;;;;5071862;28;20289;-57
2022/03/26 12:00:52;;;;;;;13.67;10.47;;;;;;;;;;5071885;28;20323;-57
2022/03/26 12:03:21;;;;;;;13.07;11.23;;;;;;;;;;5071705;28;20676;-57
2022/03/26 12:08:35;;;;;;;15.37;11.73;;;;;;;;;;5071577;28;20584;-56
2022/03/26 12:11:03;;;;;;;13.73;10.50;;;;;;;;;;5071829;28;20318;-56
2022/03/26 12:13:32;;;;;;;15.33;10.90;;;;;;;;;;5071703;28;20264;-56
2022/03/26 12:15:58;;;;;;;13.70;11.37;;;;;;;;;;5073345;28;20199;-56
2022/03/26 12:18:31;;;;;;;13.73;10.77;;;;;;;;;;5075446;28;20654;-57
2022/03/26 12:21:05;;;;;;;12.90;11.60;;;;;;;;;;5075356;28;20215;-56
2022/03/26 12:23:34;;;;;;;13.53;10.87;;;;;;;;;;5074545;28;20709;-57
2022/03/26 12:26:00;;;;;;;11.13;9.73;;;;;;;;;;5073328;28;20255;-56
2022/03/26 12:28:32;;;;;;;13.90;10.33;;;;;;;;;;5075165;28;20202;-57
2022/03/26 12:31:00;;;;;;;12.27;9.30;;;;;;;;;;5075368;28;20229;-57
2022/03/26 12:33:26;;;;;;;12.63;10.60;;;;;;;;;;5075159;28;20282;-57
2022/03/26 12:35:54;;;;;;;12.13;10.17;;;;;;;;;;5075338;28;20650;-56
2022/03/26 12:38:20;;;;;;;12.77;11.30;;;;;;;;;;5075270;28;20279;-57
2022/03/26 12:40:50;;;;;;;11.47;10.00;;;;;;;;;;5075266;28;20223;-57
2022/03/26 12:43:16;;;;;;;10.67;9.00;;;;;;;;;;5075148;28;20677;-57
2022/03/26 12:45:44;;;;;;;11.90;8.60;;;;;;;;;;5075256;28;20227;-56
2022/03/26 12:48:11;;;;;;;7.97;7.17;;;;;;;;;;5075013;28;20657;-58
2022/03/26 12:50:38;;;;;;;9.33;7.47;;;;;;;;;;5074828;28;20257;-58
2022/03/26 12:53:07;;;;;;;12.37;10.77;;;;;;;;;;5074983;28;20203;-58
2022/03/26 12:55:33;;;;;;;11.17;7.00;;;;;;;;;;5074837;28;20202;-58
2022/03/26 13:00:58;;;;;;;10.30;7.63;;;;;;;;;;5072713;28;20662;-59
2022/03/26 13:03:27;;;;;;;8.57;7.10;;;;;;;;;;5074457;28;20214;-57
2022/03/26 13:05:53;;;;;;;8.23;6.77;;;;;;;;;;5074655;28;20200;-57
2022/03/26 13:08:19;;;;;;;7.00;6.17;;;;;;;;;;5074400;28;20278;-57
2022/03/26 13:10:45;;;;;;;9.00;6.93;;;;;;;;;;5074637;28;20234;-57
2022/03/26 13:13:12;;;;;;;7.07;6.07;;;;;;;;;;5074323;28;20566;-57
2022/03/26 13:15:38;;;;;;;8.37;5.67;;;;;;;;;;5073970;28;20533;-60
2022/03/26 13:18:07;;;;;;;7.17;5.70;;;;;;;;;;5074226;28;20681;-58
2022/03/26 13:20:35;;;;;;;8.33;6.40;;;;;;;;;;5074056;28;20203;-58
2022/03/26 13:23:02;;;;;;;7.67;6.87;;;;;;;;;;5074316;28;20203;-58
2022/03/26 13:25:32;;;;;;;7.10;6.40;;;;;;;;;;5073930;28;20373;-58
2022/03/26 13:28:12;;;;;;;8.60;6.40;;;;;;;;;;5073688;28;20223;-57
2022/03/26 13:30:38;;;;;;;7.10;5.87;;;;;;;;;;5074267;28;20619;-57
2022/03/26 13:33:06;;;;;;;10.07;7.13;;;;;;;;;;5074051;28;20240;-57
2022/03/26 13:35:33;;;;;;;8.40;7.47;;;;;;;;;;5073843;28;20204;-57
2022/03/26 13:38:08;;;;;;;8.03;7.10;;;;;;;;;;5073872;28;20204;-59
2022/03/26 13:40:35;;;;;;;8.50;7.60;;;;;;;;;;5073550;28;20199;-58
2022/03/26 13:43:01;;;;;;;10.53;8.00;;;;;;;;;;5074053;28;20282;-58
2022/03/26 13:45:28;;;;;;;10.93;8.07;;;;;;;;;;5073840;28;20204;-59
2022/03/26 13:47:55;;;;;;;9.13;8.03;;;;;;;;;;5073633;28;20802;-58
2022/03/26 13:50:22;;;;;;;9.53;8.23;;;;;;;;;;5073721;28;20199;-58
2022/03/26 13:52:50;;;;;;;9.67;7.20;;;;;;;;;;5073778;28;20213;-58
2022/03/26 13:55:21;;;;;;;8.33;7.00;;;;;;;;;;5073295;28;20677;-58
2022/03/26 13:57:48;;;;;;;9.87;8.43;;;;;;;;;;5071875;28;20618;-58
2022/03/26 14:00:15;;;;;;;8.77;7.10;;;;;;;;;;5071561;28;20208;-58
2022/03/26 14:02:41;;;;;;;8.67;6.57;;;;;;;;;;5073325;28;20219;-58
2022/03/26 14:05:17;;;;;;;7.47;6.10;;;;;;;;;;5073362;28;20293;-58
2022/03/26 14:07:44;;;;;;;8.40;6.13;;;;;;;;;;5073388;28;20245;-58
2022/03/26 14:10:11;;;;;;;6.93;5.73;;;;;;;;;;5073379;28;20200;-58
2022/03/26 14:12:37;;;;;;;7.87;5.73;;;;;;;;;;5073092;28;20203;-58
2022/03/26 14:15:03;;;;;;;6.87;5.40;;;;;;;;;;5073198;28;20192;-58
2022/03/26 14:17:29;;;;;;;7.77;5.73;;;;;;;;;;5072823;28;20230;-58
2022/03/26 14:19:55;;;;;;;10.97;5.00;;;;;;;;;;5072959;28;20238;-58
2022/03/26 14:22:21;;;;;;;5.67;4.90;;;;;;;;;;5072670;28;20233;-58
2022/03/26 14:24:49;;;;;;;6.60;4.77;;;;;;;;;;5072735;28;20710;-58
2022/03/26 14:27:15;;;;;;;8.83;7.03;;;;;;;;;;5072816;28;20203;-58
2022/03/26 14:29:41;;;;;;;5.50;4.80;;;;;;;;;;5072875;28;20566;-59
2022/03/26 14:32:07;;;;;;;5.90;5.07;;;;;;;;;;5072859;28;20187;-59
2022/03/26 14:34:33;;;;;;;6.50;5.18;;;;;;;;;;5071393;28;20422;-59